createdAt,value
2023-05-10T05:03:19.657Z,25.00
2023-05-10T05:04:20.558Z,25.00
2023-05-10T05:05:19.640Z,25.00
2023-05-10T05:06:20.674Z,25.00
2023-05-10T05:07:19.653Z,25.00
2023-05-10T05:08:20.750Z,25.00
2023-05-10T05:09:20.788Z,0.00
2023-05-10T05:10:20.753Z,0.00
2023-05-10T05:11:20.804Z,0.00
2023-05-10T05:12:19.847Z,0.00
2023-05-10T05:13:20.903Z,0.00
2023-05-10T05:14:19.964Z,0.00
2023-05-10T05:15:21.003Z,0.00
2023-05-10T05:16:20.059Z,0.00
2023-05-10T05:17:21.064Z,0.00
2023-05-10T05:18:21.184Z,0.00
2023-05-10T05:19:21.326Z,0.00
2023-05-10T05:20:21.167Z,0.00
2023-05-10T05:21:21.319Z,0.00
2023-05-10T05:22:21.283Z,0.00
2023-05-10T05:23:21.295Z,0.00
2023-05-10T05:24:21.374Z,0.00
2023-05-10T05:25:21.415Z,6.16
2023-05-10T05:26:20.456Z,21.81
2023-05-10T05:27:20.481Z,25.40
2023-05-10T05:28:21.529Z,28.67
2023-05-10T05:29:20.593Z,25.32
2023-05-10T05:30:21.636Z,25.00
2023-05-10T05:31:21.721Z,27.81
2023-05-10T05:32:21.845Z,27.87
2023-05-10T05:33:21.767Z,23.39
2023-05-10T05:34:20.852Z,26.25
2023-05-10T05:35:20.942Z,26.93
2023-05-10T05:36:20.938Z,25.00
2023-05-10T05:37:22.114Z,25.00
2023-05-10T05:38:22.091Z,32.07
2023-05-10T05:39:21.157Z,26.39
2023-05-10T05:40:22.014Z,25.06
2023-05-10T05:41:21.080Z,29.17
2023-05-10T05:42:22.092Z,25.12
2023-05-10T05:43:21.131Z,25.00
2023-05-10T05:44:22.132Z,28.67
2023-05-10T05:45:21.140Z,25.04
2023-05-10T05:46:22.242Z,26.65
2023-05-10T05:47:21.404Z,30.28
2023-05-10T05:48:22.211Z,27.66
2023-05-10T05:49:22.171Z,26.32
2023-05-10T05:50:22.227Z,28.98
2023-05-10T05:51:22.224Z,29.52
2023-05-10T05:52:21.202Z,26.57
2023-05-10T05:53:22.275Z,28.52
2023-05-10T05:54:22.234Z,27.41
2023-05-10T05:55:22.836Z,33.83
2023-05-10T05:56:22.290Z,33.74
2023-05-10T05:57:22.238Z,34.23
2023-05-10T05:58:22.249Z,39.83
2023-05-10T05:59:22.284Z,41.32
2023-05-10T06:00:22.282Z,38.91
2023-05-10T06:01:22.282Z,40.94
2023-05-10T06:02:22.417Z,41.45
2023-05-10T06:03:22.416Z,52.42
2023-05-10T06:04:22.380Z,65.47
2023-05-10T06:05:22.318Z,63.00
2023-05-10T06:06:22.386Z,47.70
2023-05-10T06:07:22.392Z,43.06
2023-05-10T06:08:21.387Z,42.68
2023-05-10T06:09:22.445Z,32.15
2023-05-10T06:10:21.400Z,32.87
2023-05-10T06:11:21.469Z,34.85
2023-05-10T06:12:21.485Z,28.19
2023-05-10T06:13:22.514Z,37.05
2023-05-10T06:14:21.463Z,34.89
2023-05-10T06:15:21.442Z,32.28
2023-05-10T06:16:21.518Z,33.53
2023-05-10T06:17:21.454Z,31.67
2023-05-10T06:18:21.458Z,30.49
2023-05-10T06:19:22.568Z,28.10
2023-05-10T06:20:21.454Z,25.00
2023-05-10T06:21:22.495Z,34.29
2023-05-10T06:22:21.463Z,52.52
2023-05-10T06:23:21.506Z,48.14
2023-05-10T06:24:21.460Z,25.00
2023-05-10T06:25:22.508Z,35.51
2023-05-10T06:26:22.481Z,40.58
2023-05-10T06:27:22.486Z,44.93
2023-05-10T06:28:22.535Z,37.73
2023-05-10T06:29:22.531Z,56.50
2023-05-10T06:30:21.539Z,30.38
2023-05-10T06:31:21.576Z,42.27
2023-05-10T06:32:21.586Z,39.60
2023-05-10T06:33:21.584Z,47.63
2023-05-10T06:34:21.700Z,36.28
2023-05-10T06:35:22.598Z,28.82
2023-05-10T06:36:21.677Z,27.74
2023-05-10T06:37:22.705Z,25.00
2023-05-10T06:38:21.717Z,27.10
2023-05-10T06:39:22.771Z,29.38
2023-05-10T06:40:22.912Z,26.90
2023-05-10T06:41:24.693Z,27.22
2023-05-10T06:42:21.831Z,31.36
2023-05-10T06:43:21.821Z,31.24
2023-05-10T06:44:22.859Z,44.73
2023-05-10T06:45:21.833Z,42.39
2023-05-10T06:46:21.912Z,37.52
2023-05-10T06:47:22.814Z,46.24
2023-05-10T06:48:22.890Z,52.36
2023-05-10T06:49:22.791Z,53.13
2023-05-10T06:50:21.781Z,48.31
2023-05-10T06:51:22.803Z,42.39
2023-05-10T06:52:22.892Z,37.88
2023-05-10T06:53:22.776Z,37.43
2023-05-10T06:54:22.740Z,30.91
2023-05-10T06:55:21.802Z,32.61
2023-05-10T06:56:21.734Z,30.68
2023-05-10T06:57:31.258Z,26.07
2023-05-10T06:58:22.775Z,26.24
2023-05-10T06:59:22.882Z,26.19
2023-05-10T07:00:21.914Z,27.35
2023-05-10T07:01:23.032Z,30.21
2023-05-10T07:02:21.749Z,27.23
2023-05-10T07:03:21.722Z,31.76
2023-05-10T07:04:21.718Z,28.64
2023-05-10T07:05:21.950Z,33.61
2023-05-10T07:06:32.271Z,33.42
2023-05-10T07:07:22.921Z,33.73
2023-05-10T07:08:21.787Z,34.58
2023-05-10T07:09:21.764Z,34.83
2023-05-10T07:10:22.759Z,33.43
2023-05-10T07:11:22.789Z,36.86
2023-05-10T07:12:22.790Z,38.11
2023-05-10T07:13:21.904Z,40.70
2023-05-10T07:14:22.774Z,44.09
2023-05-10T07:15:22.737Z,43.53
2023-05-10T07:16:22.921Z,39.30
2023-05-10T07:17:22.971Z,32.82
2023-05-10T07:18:21.945Z,25.88
2023-05-10T07:19:21.873Z,25.00
2023-05-10T07:20:21.964Z,26.21
2023-05-10T07:21:22.056Z,27.39
2023-05-10T07:22:21.993Z,25.00
2023-05-10T07:23:23.015Z,26.16
2023-05-10T07:24:22.071Z,25.00
2023-05-10T07:25:23.066Z,26.68
2023-05-10T07:26:22.115Z,25.00
2023-05-10T07:27:23.209Z,27.02
2023-05-10T07:28:23.266Z,25.00
2023-05-10T07:29:23.214Z,26.46
2023-05-10T07:30:23.333Z,26.36
2023-05-10T07:31:23.253Z,31.88
2023-05-10T07:32:23.538Z,35.08
2023-05-10T07:33:23.365Z,28.71
2023-05-10T07:34:23.338Z,30.26
2023-05-10T07:35:23.353Z,31.94
2023-05-10T07:36:23.370Z,26.30
2023-05-10T07:37:22.385Z,29.79
2023-05-10T07:38:22.389Z,31.43
2023-05-10T07:39:27.798Z,28.26
2023-05-10T07:40:23.350Z,28.59
2023-05-10T07:41:23.366Z,29.07
2023-05-10T07:42:23.374Z,30.84
2023-05-10T07:43:23.368Z,30.63
2023-05-10T07:44:22.383Z,31.50
2023-05-10T07:45:23.320Z,31.68
2023-05-10T07:46:23.379Z,30.40
2023-05-10T07:47:22.450Z,35.44
2023-05-10T07:48:23.312Z,40.67
2023-05-10T07:49:22.369Z,32.98
2023-05-10T07:50:22.397Z,41.82
2023-05-10T07:51:22.476Z,45.88
2023-05-10T07:52:22.846Z,48.97
2023-05-10T07:53:23.632Z,56.33
2023-05-10T07:54:23.362Z,63.75
2023-05-10T07:55:23.269Z,63.85
2023-05-10T07:56:23.478Z,68.02
2023-05-10T07:57:22.271Z,73.11
2023-05-10T07:58:23.237Z,71.46
2023-05-10T07:59:23.250Z,72.75
2023-05-10T08:00:22.282Z,71.69
2023-05-10T08:01:22.231Z,75.59
2023-05-10T08:02:22.277Z,77.25
2023-05-10T08:03:23.290Z,88.24
2023-05-10T08:04:22.261Z,97.08
2023-05-10T08:05:22.189Z,86.25
2023-05-10T08:06:23.217Z,67.75
2023-05-10T08:07:22.174Z,52.16
2023-05-10T08:08:23.171Z,39.87
2023-05-10T08:09:23.156Z,39.09
2023-05-10T08:10:23.162Z,36.92
2023-05-10T08:11:22.131Z,38.49
2023-05-10T08:12:22.160Z,36.45
2023-05-10T08:13:22.162Z,38.94
2023-05-10T08:14:23.115Z,40.45
2023-05-10T08:15:22.406Z,39.72
2023-05-10T08:16:23.264Z,35.42
2023-05-10T08:17:24.818Z,30.28
2023-05-10T08:18:23.202Z,26.98
2023-05-10T08:19:22.133Z,45.70
2023-05-10T08:20:22.142Z,54.37
2023-05-10T08:21:23.084Z,47.39
2023-05-10T08:22:22.086Z,45.66
2023-05-10T08:23:22.171Z,63.59
2023-05-10T08:24:22.203Z,68.25
2023-05-10T08:25:22.053Z,72.26
2023-05-10T08:26:22.038Z,81.64
2023-05-10T08:27:23.138Z,80.19
2023-05-10T08:28:23.896Z,96.12
2023-05-10T08:29:23.040Z,85.01
2023-05-10T08:30:22.072Z,85.05
2023-05-10T08:31:22.066Z,88.45
2023-05-10T08:32:22.227Z,97.65
2023-05-10T08:33:22.032Z,102.46
2023-05-10T08:34:22.256Z,95.03
2023-05-10T08:35:22.034Z,100.62
2023-05-10T08:36:21.971Z,105.48
2023-05-10T08:37:23.006Z,109.56
2023-05-10T08:38:22.960Z,122.40
2023-05-10T08:39:29.686Z,118.71
2023-05-10T08:40:22.963Z,117.78
2023-05-10T08:41:23.002Z,113.25
2023-05-10T08:42:22.443Z,100.76
2023-05-10T08:43:23.018Z,93.82
2023-05-10T08:44:23.030Z,96.97
2023-05-10T08:45:22.974Z,100.90
2023-05-10T08:46:22.988Z,103.37
2023-05-10T08:47:23.009Z,104.23
2023-05-10T08:48:21.888Z,111.38
2023-05-10T08:49:22.906Z,117.64
2023-05-10T08:50:22.978Z,120.86
2023-05-10T08:51:22.965Z,117.52
2023-05-10T08:52:22.876Z,113.57
2023-05-10T08:53:23.515Z,110.49
2023-05-10T08:54:22.877Z,110.52
2023-05-10T08:55:29.419Z,116.53
2023-05-10T08:56:23.101Z,116.95
2023-05-10T08:57:22.910Z,116.81
2023-05-10T08:58:23.444Z,116.55
2023-05-10T08:59:21.817Z,114.90
2023-05-10T09:00:22.817Z,106.79
2023-05-10T09:01:23.028Z,105.92
2023-05-10T09:02:22.817Z,120.11
2023-05-10T09:03:22.838Z,156.71
2023-05-10T09:04:21.919Z,166.93
2023-05-10T09:05:22.859Z,170.55
2023-05-10T09:06:22.776Z,171.12
2023-05-10T09:07:22.777Z,165.50
2023-05-10T09:08:22.038Z,156.11
2023-05-10T09:09:22.864Z,141.40
2023-05-10T09:10:22.791Z,138.11
2023-05-10T09:11:21.772Z,131.73
2023-05-10T09:12:22.763Z,126.68
2023-05-10T09:13:22.729Z,123.63
2023-05-10T09:14:21.707Z,121.35
2023-05-10T09:15:21.697Z,115.56
2023-05-10T09:16:22.776Z,116.75
2023-05-10T09:17:22.785Z,114.72
2023-05-10T09:18:22.800Z,112.07
2023-05-10T09:19:22.899Z,111.61
2023-05-10T09:20:22.845Z,111.23
2023-05-10T09:21:22.870Z,110.59
2023-05-10T09:22:22.913Z,110.85
2023-05-10T09:23:21.980Z,107.55
2023-05-10T09:24:22.978Z,107.95
2023-05-10T09:25:23.060Z,109.15
2023-05-10T09:26:23.070Z,104.76
2023-05-10T09:27:23.150Z,105.55
2023-05-10T09:28:22.920Z,103.57
2023-05-10T09:29:23.194Z,100.51
2023-05-10T09:30:23.240Z,97.02
2023-05-10T09:31:23.492Z,98.60
2023-05-10T09:32:22.348Z,98.30
2023-05-10T09:33:22.328Z,98.14
2023-05-10T09:34:22.338Z,97.88
2023-05-10T09:35:22.565Z,94.82
2023-05-10T09:36:23.536Z,93.47
2023-05-10T09:37:22.462Z,94.11
2023-05-10T09:38:23.477Z,88.75
2023-05-10T09:39:22.539Z,91.10
2023-05-10T09:40:23.543Z,91.56
2023-05-10T09:41:23.595Z,93.00
2023-05-10T09:42:23.606Z,92.19
2023-05-10T09:43:24.670Z,94.99
2023-05-10T09:44:22.618Z,89.07
2023-05-10T09:45:22.703Z,89.14
2023-05-10T09:46:23.740Z,92.33
2023-05-10T09:47:23.912Z,92.55
2023-05-10T09:48:23.005Z,92.50
2023-05-10T09:49:22.752Z,89.76
2023-05-10T09:50:23.798Z,92.43
2023-05-10T09:51:23.874Z,90.19
2023-05-10T09:52:23.788Z,99.18
2023-05-10T09:53:23.814Z,102.99
2023-05-10T09:54:23.802Z,102.40
2023-05-10T09:55:23.820Z,102.85
2023-05-10T09:56:24.434Z,108.78
2023-05-10T09:57:23.882Z,107.27
2023-05-10T09:58:23.978Z,110.15
2023-05-10T09:59:23.957Z,112.60
2023-05-10T10:00:22.928Z,112.86
2023-05-10T10:01:24.505Z,110.59
2023-05-10T10:02:24.068Z,112.32
2023-05-10T10:03:24.166Z,114.97
2023-05-10T10:04:24.223Z,111.85
2023-05-10T10:05:24.050Z,111.02
2023-05-10T10:06:29.977Z,116.56
2023-05-10T10:07:24.073Z,116.80
2023-05-10T10:08:23.620Z,117.36
2023-05-10T10:09:30.589Z,117.06
2023-05-10T10:10:22.969Z,117.10
2023-05-10T10:11:23.945Z,118.05
2023-05-10T10:12:22.919Z,118.57
2023-05-10T10:13:23.942Z,118.66
2023-05-10T10:14:22.912Z,121.97
2023-05-10T10:15:23.198Z,120.21
2023-05-10T10:16:24.067Z,120.14
2023-05-10T10:17:23.980Z,121.47
2023-05-10T10:18:23.936Z,119.99
2023-05-10T10:19:23.881Z,119.56
2023-05-10T10:20:22.874Z,121.68
2023-05-10T10:21:23.874Z,118.26
2023-05-10T10:22:23.888Z,118.36
2023-05-10T10:23:23.873Z,118.01
2023-05-10T10:24:22.877Z,118.11
2023-05-10T10:25:23.847Z,117.25
2023-05-10T10:26:22.877Z,117.83
2023-05-10T10:27:22.835Z,114.85
2023-05-10T10:28:25.412Z,117.66
2023-05-10T10:29:22.843Z,117.82
2023-05-10T10:30:22.818Z,117.75
2023-05-10T10:31:23.878Z,118.53
2023-05-10T10:32:23.825Z,118.70
2023-05-10T10:33:28.387Z,119.08
2023-05-10T10:34:23.769Z,117.99
2023-05-10T10:35:23.784Z,118.45
2023-05-10T10:36:23.788Z,119.03
2023-05-10T10:37:23.766Z,119.38
2023-05-10T10:38:23.932Z,123.31
2023-05-10T10:39:22.793Z,121.58
2023-05-10T10:40:23.722Z,120.70
2023-05-10T10:41:23.726Z,120.78
2023-05-10T10:42:23.715Z,123.77
2023-05-10T10:43:23.979Z,121.91
2023-05-10T10:44:23.730Z,119.52
2023-05-10T10:45:23.734Z,119.47
2023-05-10T10:46:23.712Z,119.68
2023-05-10T10:47:23.703Z,123.98
2023-05-10T10:48:24.058Z,121.63
2023-05-10T10:49:22.667Z,118.89
2023-05-10T10:50:22.650Z,120.05
2023-05-10T10:51:23.670Z,122.59
2023-05-10T10:52:23.660Z,123.47
2023-05-10T10:53:22.745Z,124.32
2023-05-10T10:54:23.675Z,124.19
2023-05-10T10:55:22.620Z,125.83
2023-05-10T10:56:23.609Z,125.87
2023-05-10T10:57:23.624Z,126.75
2023-05-10T10:58:22.801Z,124.53
2023-05-10T10:59:23.602Z,125.61
2023-05-10T11:00:23.626Z,125.24
2023-05-10T11:01:22.616Z,125.26
2023-05-10T11:02:22.629Z,124.83
2023-05-10T11:03:22.743Z,125.18
2023-05-10T11:04:22.596Z,126.79
2023-05-10T11:05:22.558Z,120.85
2023-05-10T11:06:22.545Z,120.83
2023-05-10T11:07:23.546Z,121.76
2023-05-10T11:08:22.531Z,119.30
2023-05-10T11:09:22.549Z,116.88
2023-05-10T11:10:23.533Z,119.75
2023-05-10T11:11:23.502Z,117.89
2023-05-10T11:12:23.502Z,119.22
2023-05-10T11:13:22.495Z,115.22
2023-05-10T11:14:23.524Z,112.00
2023-05-10T11:15:23.480Z,112.59
2023-05-10T11:16:23.501Z,111.76
2023-05-10T11:17:23.475Z,113.48
2023-05-10T11:18:23.483Z,114.00
2023-05-10T11:19:23.467Z,110.85
2023-05-10T11:20:23.451Z,108.68
2023-05-10T11:21:23.464Z,110.37
2023-05-10T11:22:22.443Z,106.54
2023-05-10T11:23:23.438Z,110.06
2023-05-10T11:24:23.430Z,106.05
2023-05-10T11:25:23.444Z,108.56
2023-05-10T11:26:22.441Z,105.91
2023-05-10T11:27:23.401Z,105.00
2023-05-10T11:28:23.385Z,105.85
2023-05-10T11:29:22.491Z,102.88
2023-05-10T11:30:23.384Z,106.07
2023-05-10T11:31:23.397Z,105.20
2023-05-10T11:32:23.402Z,103.98
2023-05-10T11:33:22.382Z,106.12
2023-05-10T11:34:23.381Z,109.03
2023-05-10T11:35:22.358Z,104.57
2023-05-10T11:36:22.350Z,103.67
2023-05-10T11:37:22.332Z,103.68
2023-05-10T11:38:23.326Z,106.34
2023-05-10T11:39:23.497Z,101.43
2023-05-10T11:40:22.330Z,99.69
2023-05-10T11:41:23.314Z,99.79
2023-05-10T11:42:23.315Z,97.13
2023-05-10T11:43:23.283Z,98.91
2023-05-10T11:44:23.332Z,96.35
2023-05-10T11:45:23.272Z,91.30
2023-05-10T11:46:22.375Z,93.61
2023-05-10T11:47:23.313Z,91.51
2023-05-10T11:48:23.273Z,92.51
2023-05-10T11:49:23.315Z,91.94
2023-05-10T11:50:23.254Z,93.02
2023-05-10T11:51:23.266Z,92.18
2023-05-10T11:52:23.230Z,95.22
2023-05-10T11:53:25.823Z,91.76
2023-05-10T11:54:23.230Z,92.13
2023-05-10T11:55:22.209Z,92.66
2023-05-10T11:56:23.212Z,93.79
2023-05-10T11:57:22.216Z,94.55
2023-05-10T11:58:22.233Z,97.08
2023-05-10T11:59:23.205Z,97.73
2023-05-10T12:00:23.173Z,97.08
2023-05-10T12:01:23.173Z,95.66
2023-05-10T12:02:23.293Z,97.28
2023-05-10T12:03:23.270Z,112.33
2023-05-10T12:04:23.317Z,216.52
2023-05-10T12:05:23.152Z,207.85
2023-05-10T12:06:23.168Z,148.50
2023-05-10T12:07:23.150Z,135.31
2023-05-10T12:08:23.124Z,139.84
2023-05-10T12:09:39.723Z,166.17
2023-05-10T12:10:23.109Z,166.63
2023-05-10T12:11:22.085Z,167.78
2023-05-10T12:12:23.096Z,171.62
2023-05-10T12:13:23.101Z,181.36
2023-05-10T12:14:23.106Z,192.56
2023-05-10T12:15:23.085Z,192.85
2023-05-10T12:16:22.131Z,183.78
2023-05-10T12:17:23.059Z,188.88
2023-05-10T12:18:23.042Z,201.95
2023-05-10T12:19:23.042Z,196.76
2023-05-10T12:20:22.036Z,195.85
2023-05-10T12:21:22.145Z,194.77
2023-05-10T12:22:23.037Z,198.12
2023-05-10T12:23:23.014Z,200.66
2023-05-10T12:24:23.005Z,201.85
2023-05-10T12:25:22.005Z,203.39
2023-05-10T12:26:21.990Z,202.92
2023-05-10T12:27:21.988Z,200.24
2023-05-10T12:28:22.971Z,202.09
2023-05-10T12:29:21.970Z,204.14
2023-05-10T12:30:22.989Z,207.91
2023-05-10T12:31:23.037Z,206.41
2023-05-10T12:32:22.950Z,205.95
2023-05-10T12:33:21.938Z,203.99
2023-05-10T12:34:21.915Z,208.52
2023-05-10T12:35:21.915Z,204.85
2023-05-10T12:36:21.911Z,206.79
2023-05-10T12:37:22.903Z,205.59
2023-05-10T12:38:21.898Z,204.83
2023-05-10T12:39:21.916Z,209.91
2023-05-10T12:40:22.872Z,208.20
2023-05-10T12:41:21.881Z,207.34
2023-05-10T12:42:21.858Z,205.88
2023-05-10T12:43:21.867Z,208.90
2023-05-10T12:44:22.860Z,211.41
2023-05-10T12:45:21.845Z,206.18
2023-05-10T12:46:22.957Z,207.38
2023-05-10T12:47:22.917Z,206.35
2023-05-10T12:48:21.837Z,205.34
2023-05-10T12:49:22.858Z,201.19
2023-05-10T12:50:22.817Z,205.16
2023-05-10T12:51:22.798Z,210.43
2023-05-10T12:52:22.799Z,210.12
2023-05-10T12:53:22.797Z,206.95
2023-05-10T12:54:22.795Z,206.73
2023-05-10T12:55:21.771Z,208.65
2023-05-10T12:56:21.758Z,206.89
2023-05-10T12:57:21.764Z,205.50
2023-05-10T12:59:22.750Z,205.34
2023-05-10T13:00:22.752Z,205.32
2023-05-10T13:01:22.773Z,206.18
2023-05-10T13:02:22.737Z,205.20
2023-05-10T13:03:22.721Z,206.00
2023-05-10T13:04:22.835Z,209.25
2023-05-10T13:05:22.690Z,212.59
2023-05-10T13:06:21.684Z,211.37
2023-05-10T13:07:21.680Z,210.68
2023-05-10T13:08:21.704Z,207.83
2023-05-10T13:09:22.680Z,211.17
2023-05-10T13:10:21.668Z,207.35
2023-05-10T13:11:22.722Z,209.06
2023-05-10T13:12:22.757Z,212.53
2023-05-10T13:13:22.635Z,210.32
2023-05-10T13:14:22.647Z,209.15
2023-05-10T13:15:21.624Z,210.07
2023-05-10T13:16:22.692Z,211.00
2023-05-10T13:17:21.642Z,209.15
2023-05-10T13:18:22.749Z,209.32
2023-05-10T13:19:21.623Z,206.07
2023-05-10T13:20:22.615Z,202.57
2023-05-10T13:21:22.585Z,208.12
2023-05-10T13:22:32.551Z,202.78
2023-05-10T13:23:22.591Z,203.12
2023-05-10T13:24:22.572Z,203.74
2023-05-10T13:25:22.607Z,203.77
2023-05-10T13:26:21.570Z,206.02
2023-05-10T13:27:21.574Z,200.82
2023-05-10T13:28:21.580Z,203.39
2023-05-10T13:29:22.547Z,204.86
2023-05-10T13:30:21.521Z,202.83
2023-05-10T13:31:21.649Z,197.24
2023-05-10T13:32:21.535Z,201.83
2023-05-10T13:33:22.513Z,203.07
2023-05-10T13:34:22.538Z,198.76
2023-05-10T13:35:21.505Z,195.55
2023-05-10T13:36:22.483Z,200.48
2023-05-10T13:37:21.477Z,199.70
2023-05-10T13:38:22.487Z,200.85
2023-05-10T13:39:22.003Z,202.75
2023-05-10T13:40:22.469Z,202.02
2023-05-10T13:41:21.462Z,199.80
2023-05-10T13:42:22.456Z,201.81
2023-05-10T13:43:21.441Z,196.17
2023-05-10T13:44:22.467Z,198.88
2023-05-10T13:45:21.445Z,198.93
2023-05-10T13:46:22.446Z,197.74
2023-05-10T13:47:22.449Z,196.73
2023-05-10T13:48:21.408Z,193.98
2023-05-10T13:49:22.434Z,199.37
2023-05-10T13:50:22.472Z,198.98
2023-05-10T13:51:22.429Z,199.64
2023-05-10T13:52:22.398Z,198.52
2023-05-10T13:53:21.377Z,195.40
2023-05-10T13:54:21.374Z,197.13
2023-05-10T13:55:21.372Z,195.27
2023-05-10T13:56:22.351Z,193.97
2023-05-10T13:57:21.346Z,200.39
2023-05-10T13:58:22.334Z,197.57
2023-05-10T13:59:22.329Z,194.38
2023-05-10T14:00:22.332Z,191.48
2023-05-10T14:01:22.403Z,190.32
2023-05-10T14:02:21.371Z,189.76
2023-05-10T14:03:22.410Z,192.55
2023-05-10T14:04:22.311Z,190.16
2023-05-10T14:05:25.539Z,192.42
2023-05-10T14:06:21.402Z,192.58
2023-05-10T14:07:22.285Z,189.18
2023-05-10T14:08:21.266Z,193.15
2023-05-10T14:09:21.270Z,193.75
2023-05-10T14:10:22.260Z,191.11
2023-05-10T14:11:24.495Z,189.37
2023-05-10T14:12:21.252Z,189.50
2023-05-10T14:13:22.228Z,190.16
2023-05-10T14:14:21.220Z,191.07
2023-05-10T14:15:21.220Z,189.85
2023-05-10T14:16:21.380Z,189.34
2023-05-10T14:17:22.221Z,192.39
2023-05-10T14:18:22.269Z,187.05
2023-05-10T14:19:21.197Z,192.41
2023-05-10T14:20:22.188Z,193.23
2023-05-10T14:21:22.177Z,189.60
2023-05-10T14:22:22.207Z,189.93
2023-05-10T14:23:22.242Z,192.21
2023-05-10T14:24:22.165Z,193.37
2023-05-10T14:25:21.154Z,191.16
2023-05-10T14:26:22.164Z,190.57
2023-05-10T14:27:21.143Z,189.18
2023-05-10T14:28:22.142Z,190.31
2023-05-10T14:29:22.140Z,188.33
2023-05-10T14:30:22.133Z,189.54
2023-05-10T14:31:22.154Z,190.25
2023-05-10T14:32:22.103Z,190.82
2023-05-10T14:33:22.100Z,191.64
2023-05-10T14:34:21.143Z,185.92
2023-05-10T14:35:22.190Z,189.91
2023-05-10T14:36:21.072Z,186.16
2023-05-10T14:37:22.075Z,186.64
2023-05-10T14:38:22.103Z,186.23
2023-05-10T14:39:22.061Z,188.10
2023-05-10T14:40:22.076Z,185.41
2023-05-10T14:41:22.044Z,186.95
2023-05-10T14:42:21.044Z,185.43
2023-05-10T14:43:22.023Z,189.30
2023-05-10T14:44:21.006Z,183.98
2023-05-10T14:45:22.020Z,186.62
2023-05-10T14:46:21.121Z,183.97
2023-05-10T14:47:20.998Z,182.48
2023-05-10T14:48:21.988Z,186.19
2023-05-10T14:49:20.981Z,182.62
2023-05-10T14:50:35.837Z,180.80
2023-05-10T14:51:21.981Z,181.22
2023-05-10T14:52:21.965Z,182.22
2023-05-10T14:53:21.946Z,182.73
2023-05-10T14:54:21.964Z,183.78
2023-05-10T14:55:21.956Z,184.13
2023-05-10T14:56:20.929Z,181.40
2023-05-10T14:57:20.930Z,184.70
2023-05-10T14:58:21.908Z,179.34
2023-05-10T14:59:20.891Z,176.62
2023-05-10T15:00:21.019Z,182.43
2023-05-10T15:01:22.021Z,177.38
2023-05-10T15:02:20.950Z,180.00
2023-05-10T15:03:22.066Z,180.09
2023-05-10T15:04:21.856Z,181.34
2023-05-10T15:05:21.872Z,178.45
2023-05-10T15:06:20.848Z,177.98
2023-05-10T15:07:20.840Z,178.49
2023-05-10T15:08:20.837Z,177.96
2023-05-10T15:09:20.825Z,178.61
2023-05-10T15:10:20.899Z,179.55
2023-05-10T15:11:20.826Z,179.08
2023-05-10T15:12:20.807Z,178.20
2023-05-10T15:13:22.557Z,180.12
2023-05-10T15:14:21.790Z,175.86
2023-05-10T15:15:21.814Z,175.71
2023-05-10T15:16:21.920Z,178.68
2023-05-10T15:17:20.774Z,177.42
2023-05-10T15:18:23.637Z,175.61
2023-05-10T15:19:21.760Z,174.75
2023-05-10T15:20:21.761Z,180.99
2023-05-10T15:21:20.765Z,178.07
2023-05-10T15:22:21.742Z,177.02
2023-05-10T15:23:20.724Z,176.32
2023-05-10T15:24:21.753Z,177.60
2023-05-10T15:25:21.729Z,176.11
2023-05-10T15:26:20.728Z,177.12
2023-05-10T15:27:21.711Z,175.89
2023-05-10T15:28:21.698Z,173.14
2023-05-10T15:29:21.722Z,170.32
2023-05-10T16:41:19.386Z,25.00
2023-05-10T16:42:20.092Z,25.00
